sensor_id;sensor_type;location;lat;lon;timestamp;P1;durP1;ratioP1;P2;durP2;ratioP2
31584;SDS011;18191;51.288;12.390;2023-12-20T00:04:48;4.68;;;1.50;;
31584;SDS011;18191;51.288;12.390;2023-12-20T00:09:38;2.90;;;1.63;;
31584;SDS011;18191;51.288;12.390;2023-12-20T00:14:29;4.30;;;2.07;;
31584;SDS011;18191;51.288;12.390;2023-12-20T00:19:19;4.85;;;1.88;;
31584;SDS011;18191;51.288;12.390;2023-12-20T00:24:09;1.90;;;1.40;;
31584;SDS011;18191;51.288;12.390;2023-12-20T00:29:00;1.83;;;1.05;;
31584;SDS011;18191;51.288;12.390;2023-12-20T00:33:50;2.58;;;1.33;;
31584;SDS011;18191;51.288;12.390;2023-12-20T00:38:40;3.83;;;1.13;;
31584;SDS011;18191;51.288;12.390;2023-12-20T00:43:31;2.28;;;0.98;;
31584;SDS011;18191;51.288;12.390;2023-12-20T00:48:21;2.15;;;1.00;;
31584;SDS011;18191;51.288;12.390;2023-12-20T00:53:11;1.77;;;1.20;;
31584;SDS011;18191;51.288;12.390;2023-12-20T00:58:01;2.83;;;1.33;;
31584;SDS011;18191;51.288;12.390;2023-12-20T01:02:52;2.67;;;1.13;;
31584;SDS011;18191;51.288;12.390;2023-12-20T01:07:42;1.73;;;0.70;;
31584;SDS011;18191;51.288;12.390;2023-12-20T01:12:32;2.45;;;1.17;;
31584;SDS011;18191;51.288;12.390;2023-12-20T01:17:22;2.60;;;1.00;;
31584;SDS011;18191;51.288;12.390;2023-12-20T01:22:13;1.65;;;0.98;;
31584;SDS011;18191;51.288;12.390;2023-12-20T01:27:03;2.15;;;1.15;;
31584;SDS011;18191;51.288;12.390;2023-12-20T01:31:53;1.17;;;0.80;;
31584;SDS011;18191;51.288;12.390;2023-12-20T01:36:44;0.95;;;0.70;;
31584;SDS011;18191;51.288;12.390;2023-12-20T01:41:34;2.80;;;1.07;;
31584;SDS011;18191;51.288;12.390;2023-12-20T01:46:24;1.17;;;0.75;;
31584;SDS011;18191;51.288;12.390;2023-12-20T01:51:15;3.75;;;0.70;;
31584;SDS011;18191;51.288;12.390;2023-12-20T01:56:06;1.88;;;1.10;;
31584;SDS011;18191;51.288;12.390;2023-12-20T02:00:57;1.87;;;0.80;;
31584;SDS011;18191;51.288;12.390;2023-12-20T02:05:47;1.10;;;0.70;;
31584;SDS011;18191;51.288;12.390;2023-12-20T02:10:38;1.40;;;0.80;;
31584;SDS011;18191;51.288;12.390;2023-12-20T02:15:28;2.70;;;0.83;;
31584;SDS011;18191;51.288;12.390;2023-12-20T02:20:18;0.90;;;0.50;;
31584;SDS011;18191;51.288;12.390;2023-12-20T02:25:09;1.18;;;0.92;;
31584;SDS011;18191;51.288;12.390;2023-12-20T02:29:59;0.50;;;0.50;;
31584;SDS011;18191;51.288;12.390;2023-12-20T02:34:49;1.35;;;0.55;;
31584;SDS011;18191;51.288;12.390;2023-12-20T02:39:39;1.58;;;0.65;;
31584;SDS011;18191;51.288;12.390;2023-12-20T02:44:30;1.77;;;0.68;;
31584;SDS011;18191;51.288;12.390;2023-12-20T02:49:20;0.53;;;0.47;;
31584;SDS011;18191;51.288;12.390;2023-12-20T02:54:10;1.35;;;1.05;;
31584;SDS011;18191;51.288;12.390;2023-12-20T02:59:01;0.60;;;0.50;;
31584;SDS011;18191;51.288;12.390;2023-12-20T03:03:51;1.05;;;0.82;;
31584;SDS011;18191;51.288;12.390;2023-12-20T03:08:41;1.60;;;1.10;;
31584;SDS011;18191;51.288;12.390;2023-12-20T03:13:32;1.05;;;0.75;;
31584;SDS011;18191;51.288;12.390;2023-12-20T03:18:22;2.10;;;1.00;;
31584;SDS011;18191;51.288;12.390;2023-12-20T03:23:12;1.30;;;0.80;;
31584;SDS011;18191;51.288;12.390;2023-12-20T03:28:03;1.23;;;0.57;;
31584;SDS011;18191;51.288;12.390;2023-12-20T03:32:53;1.10;;;0.73;;
31584;SDS011;18191;51.288;12.390;2023-12-20T03:37:43;0.90;;;0.43;;
31584;SDS011;18191;51.288;12.390;2023-12-20T03:42:34;1.17;;;0.68;;
31584;SDS011;18191;51.288;12.390;2023-12-20T03:47:24;1.33;;;0.83;;
31584;SDS011;18191;51.288;12.390;2023-12-20T03:52:14;0.75;;;0.68;;
31584;SDS011;18191;51.288;12.390;2023-12-20T03:57:05;1.07;;;0.87;;
31584;SDS011;18191;51.288;12.390;2023-12-20T04:01:55;2.72;;;1.05;;
31584;SDS011;18191;51.288;12.390;2023-12-20T04:06:45;2.80;;;2.03;;
31584;SDS011;18191;51.288;12.390;2023-12-20T04:11:39;2.93;;;1.30;;
31584;SDS011;18191;51.288;12.390;2023-12-20T04:16:29;1.85;;;0.90;;
31584;SDS011;18191;51.288;12.390;2023-12-20T04:21:19;1.10;;;0.82;;
31584;SDS011;18191;51.288;12.390;2023-12-20T04:26:10;1.98;;;1.15;;
31584;SDS011;18191;51.288;12.390;2023-12-20T04:31:00;3.00;;;1.13;;
31584;SDS011;18191;51.288;12.390;2023-12-20T04:35:50;2.47;;;1.40;;
31584;SDS011;18191;51.288;12.390;2023-12-20T04:40:41;3.67;;;1.40;;
31584;SDS011;18191;51.288;12.390;2023-12-20T04:45:31;2.77;;;1.37;;
31584;SDS011;18191;51.288;12.390;2023-12-20T04:50:22;2.30;;;1.33;;
31584;SDS011;18191;51.288;12.390;2023-12-20T04:55:12;2.13;;;1.40;;
31584;SDS011;18191;51.288;12.390;2023-12-20T05:00:02;2.57;;;1.00;;
31584;SDS011;18191;51.288;12.390;2023-12-20T05:04:53;3.40;;;1.33;;
31584;SDS011;18191;51.288;12.390;2023-12-20T05:09:43;2.95;;;1.70;;
31584;SDS011;18191;51.288;12.390;2023-12-20T05:14:33;3.53;;;1.75;;
31584;SDS011;18191;51.288;12.390;2023-12-20T05:19:24;2.50;;;1.73;;
31584;SDS011;18191;51.288;12.390;2023-12-20T05:24:14;2.17;;;1.40;;
31584;SDS011;18191;51.288;12.390;2023-12-20T05:29:05;4.33;;;2.47;;
31584;SDS011;18191;51.288;12.390;2023-12-20T05:33:55;4.00;;;2.46;;
31584;SDS011;18191;51.288;12.390;2023-12-20T05:38:45;7.30;;;2.42;;
31584;SDS011;18191;51.288;12.390;2023-12-20T05:43:35;5.07;;;2.13;;
31584;SDS011;18191;51.288;12.390;2023-12-20T05:48:26;6.53;;;2.38;;
31584;SDS011;18191;51.288;12.390;2023-12-20T05:53:16;4.75;;;2.40;;
31584;SDS011;18191;51.288;12.390;2023-12-20T05:58:06;5.30;;;2.43;;
31584;SDS011;18191;51.288;12.390;2023-12-20T06:02:57;3.37;;;1.90;;
31584;SDS011;18191;51.288;12.390;2023-12-20T06:07:47;4.38;;;2.33;;
31584;SDS011;18191;51.288;12.390;2023-12-20T06:12:39;4.75;;;2.42;;
31584;SDS011;18191;51.288;12.390;2023-12-20T06:17:30;6.95;;;3.00;;
31584;SDS011;18191;51.288;12.390;2023-12-20T06:22:21;6.20;;;2.65;;
31584;SDS011;18191;51.288;12.390;2023-12-20T06:27:11;6.07;;;2.90;;
31584;SDS011;18191;51.288;12.390;2023-12-20T06:32:01;5.60;;;2.90;;
31584;SDS011;18191;51.288;12.390;2023-12-20T06:36:52;3.03;;;1.83;;
31584;SDS011;18191;51.288;12.390;2023-12-20T06:41:42;5.57;;;2.50;;
31584;SDS011;18191;51.288;12.390;2023-12-20T06:46:33;5.10;;;2.40;;
31584;SDS011;18191;51.288;12.390;2023-12-20T06:51:23;8.53;;;2.27;;
31584;SDS011;18191;51.288;12.390;2023-12-20T06:56:15;5.13;;;2.17;;
31584;SDS011;18191;51.288;12.390;2023-12-20T07:01:10;5.35;;;2.25;;
31584;SDS011;18191;51.288;12.390;2023-12-20T07:06:01;6.53;;;2.38;;
31584;SDS011;18191;51.288;12.390;2023-12-20T07:10:52;4.40;;;1.88;;
31584;SDS011;18191;51.288;12.390;2023-12-20T07:15:43;4.37;;;1.70;;
31584;SDS011;18191;51.288;12.390;2023-12-20T07:20:33;11.20;;;1.82;;
31584;SDS011;18191;51.288;12.390;2023-12-20T07:25:23;7.58;;;1.26;;
31584;SDS011;18191;51.288;12.390;2023-12-20T07:30:14;5.43;;;1.40;;
31584;SDS011;18191;51.288;12.390;2023-12-20T07:35:04;2.77;;;1.23;;
31584;SDS011;18191;51.288;12.390;2023-12-20T07:39:55;2.90;;;1.38;;
31584;SDS011;18191;51.288;12.390;2023-12-20T07:44:45;2.07;;;1.00;;
31584;SDS011;18191;51.288;12.390;2023-12-20T07:49:36;9.50;;;1.40;;
31584;SDS011;18191;51.288;12.390;2023-12-20T07:54:26;6.22;;;1.70;;
31584;SDS011;18191;51.288;12.390;2023-12-20T07:59:16;8.67;;;1.20;;
31584;SDS011;18191;51.288;12.390;2023-12-20T08:04:07;8.27;;;1.13;;
31584;SDS011;18191;51.288;12.390;2023-12-20T08:08:57;5.28;;;0.77;;
31584;SDS011;18191;51.288;12.390;2023-12-20T08:13:47;1.43;;;1.00;;
31584;SDS011;18191;51.288;12.390;2023-12-20T08:18:37;16.50;;;1.65;;
31584;SDS011;18191;51.288;12.390;2023-12-20T08:23:28;4.20;;;1.02;;
31584;SDS011;18191;51.288;12.390;2023-12-20T08:28:18;7.10;;;1.30;;
31584;SDS011;18191;51.288;12.390;2023-12-20T08:33:08;4.27;;;0.77;;
31584;SDS011;18191;51.288;12.390;2023-12-20T08:38:02;6.95;;;1.58;;
31584;SDS011;18191;51.288;12.390;2023-12-20T08:47:45;6.88;;;0.98;;
31584;SDS011;18191;51.288;12.390;2023-12-20T08:52:35;4.77;;;1.40;;
31584;SDS011;18191;51.288;12.390;2023-12-20T08:57:26;4.75;;;1.27;;
31584;SDS011;18191;51.288;12.390;2023-12-20T09:02:16;2.97;;;1.25;;
31584;SDS011;18191;51.288;12.390;2023-12-20T09:07:20;7.95;;;1.00;;
31584;SDS011;18191;51.288;12.390;2023-12-20T09:12:11;10.07;;;1.10;;
31584;SDS011;18191;51.288;12.390;2023-12-20T09:17:02;3.77;;;1.13;;
31584;SDS011;18191;51.288;12.390;2023-12-20T09:21:53;5.65;;;2.13;;
31584;SDS011;18191;51.288;12.390;2023-12-20T09:26:43;14.82;;;2.03;;
31584;SDS011;18191;51.288;12.390;2023-12-20T09:31:35;5.63;;;1.27;;
31584;SDS011;18191;51.288;12.390;2023-12-20T09:36:27;8.80;;;1.40;;
31584;SDS011;18191;51.288;12.390;2023-12-20T09:41:17;6.78;;;1.60;;
31584;SDS011;18191;51.288;12.390;2023-12-20T09:46:08;2.80;;;1.50;;
31584;SDS011;18191;51.288;12.390;2023-12-20T09:51:02;6.78;;;1.50;;
31584;SDS011;18191;51.288;12.390;2023-12-20T09:55:52;5.13;;;1.20;;
31584;SDS011;18191;51.288;12.390;2023-12-20T10:00:43;7.50;;;3.15;;
31584;SDS011;18191;51.288;12.390;2023-12-20T10:05:33;2.37;;;1.30;;
31584;SDS011;18191;51.288;12.390;2023-12-20T10:10:24;3.78;;;1.80;;
31584;SDS011;18191;51.288;12.390;2023-12-20T10:15:15;9.52;;;1.67;;
31584;SDS011;18191;51.288;12.390;2023-12-20T10:20:06;4.97;;;1.63;;
31584;SDS011;18191;51.288;12.390;2023-12-20T10:24:59;5.30;;;1.20;;
31584;SDS011;18191;51.288;12.390;2023-12-20T10:29:50;4.88;;;1.52;;
31584;SDS011;18191;51.288;12.390;2023-12-20T10:34:40;10.97;;;1.63;;
31584;SDS011;18191;51.288;12.390;2023-12-20T10:39:30;5.45;;;1.60;;
31584;SDS011;18191;51.288;12.390;2023-12-20T10:44:22;5.90;;;1.85;;
31584;SDS011;18191;51.288;12.390;2023-12-20T10:49:12;10.20;;;1.40;;
31584;SDS011;18191;51.288;12.390;2023-12-20T10:54:04;5.78;;;1.67;;
31584;SDS011;18191;51.288;12.390;2023-12-20T10:58:55;2.90;;;1.27;;
31584;SDS011;18191;51.288;12.390;2023-12-20T11:03:51;6.32;;;1.63;;
31584;SDS011;18191;51.288;12.390;2023-12-20T11:09:24;6.75;;;1.65;;
31584;SDS011;18191;51.288;12.390;2023-12-20T11:19:04;8.63;;;1.42;;
31584;SDS011;18191;51.288;12.390;2023-12-20T11:23:55;6.20;;;1.55;;
31584;SDS011;18191;51.288;12.390;2023-12-20T11:28:45;5.30;;;1.17;;
31584;SDS011;18191;51.288;12.390;2023-12-20T11:33:36;4.82;;;1.15;;
31584;SDS011;18191;51.288;12.390;2023-12-20T11:38:27;7.25;;;1.98;;
31584;SDS011;18191;51.288;12.390;2023-12-20T11:48:22;5.32;;;1.63;;
31584;SDS011;18191;51.288;12.390;2023-12-20T11:53:13;12.10;;;1.13;;
31584;SDS011;18191;51.288;12.390;2023-12-20T11:58:03;5.70;;;1.27;;
31584;SDS011;18191;51.288;12.390;2023-12-20T12:02:58;13.23;;;2.07;;
31584;SDS011;18191;51.288;12.390;2023-12-20T12:07:49;5.97;;;1.40;;
31584;SDS011;18191;51.288;12.390;2023-12-20T12:12:39;5.88;;;1.20;;
31584;SDS011;18191;51.288;12.390;2023-12-20T12:17:29;3.47;;;1.30;;
31584;SDS011;18191;51.288;12.390;2023-12-20T12:22:20;8.38;;;0.98;;
31584;SDS011;18191;51.288;12.390;2023-12-20T12:27:15;6.65;;;1.17;;
31584;SDS011;18191;51.288;12.390;2023-12-20T12:32:06;7.23;;;1.23;;
31584;SDS011;18191;51.288;12.390;2023-12-20T12:36:57;3.92;;;1.65;;
31584;SDS011;18191;51.288;12.390;2023-12-20T12:41:48;2.63;;;0.90;;
31584;SDS011;18191;51.288;12.390;2023-12-20T12:46:38;4.07;;;1.27;;
31584;SDS011;18191;51.288;12.390;2023-12-20T12:51:28;14.17;;;1.20;;
31584;SDS011;18191;51.288;12.390;2023-12-20T12:56:19;7.67;;;1.23;;
31584;SDS011;18191;51.288;12.390;2023-12-20T13:01:09;2.00;;;0.73;;
31584;SDS011;18191;51.288;12.390;2023-12-20T13:06:00;8.20;;;1.20;;
31584;SDS011;18191;51.288;12.390;2023-12-20T13:10:50;5.80;;;1.45;;
31584;SDS011;18191;51.288;12.390;2023-12-20T13:15:40;12.00;;;1.37;;
31584;SDS011;18191;51.288;12.390;2023-12-20T13:20:31;2.30;;;0.90;;
31584;SDS011;18191;51.288;12.390;2023-12-20T13:25:21;1.70;;;0.83;;
31584;SDS011;18191;51.288;12.390;2023-12-20T13:30:11;1.73;;;0.83;;
31584;SDS011;18191;51.288;12.390;2023-12-20T13:35:02;11.23;;;1.63;;
31584;SDS011;18191;51.288;12.390;2023-12-20T13:39:54;3.50;;;1.00;;
31584;SDS011;18191;51.288;12.390;2023-12-20T13:44:44;4.07;;;1.15;;
31584;SDS011;18191;51.288;12.390;2023-12-20T13:49:34;6.47;;;1.10;;
31584;SDS011;18191;51.288;12.390;2023-12-20T13:54:25;4.73;;;1.10;;
31584;SDS011;18191;51.288;12.390;2023-12-20T13:59:15;2.00;;;0.93;;
31584;SDS011;18191;51.288;12.390;2023-12-20T14:04:06;4.93;;;1.43;;
31584;SDS011;18191;51.288;12.390;2023-12-20T14:08:56;1.47;;;0.83;;
31584;SDS011;18191;51.288;12.390;2023-12-20T14:13:47;5.38;;;0.90;;
31584;SDS011;18191;51.288;12.390;2023-12-20T14:18:37;4.40;;;1.20;;
31584;SDS011;18191;51.288;12.390;2023-12-20T14:23:30;10.20;;;0.98;;
31584;SDS011;18191;51.288;12.390;2023-12-20T14:28:20;7.57;;;0.95;;
31584;SDS011;18191;51.288;12.390;2023-12-20T14:33:10;8.83;;;1.47;;
31584;SDS011;18191;51.288;12.390;2023-12-20T14:38:00;5.53;;;1.25;;
31584;SDS011;18191;51.288;12.390;2023-12-20T14:42:51;2.85;;;0.68;;
31584;SDS011;18191;51.288;12.390;2023-12-20T14:47:41;4.13;;;0.90;;
31584;SDS011;18191;51.288;12.390;2023-12-20T14:52:32;6.17;;;0.83;;
31584;SDS011;18191;51.288;12.390;2023-12-20T14:57:24;1.75;;;1.40;;
31584;SDS011;18191;51.288;12.390;2023-12-20T15:02:14;1.85;;;0.60;;
31584;SDS011;18191;51.288;12.390;2023-12-20T15:07:05;2.38;;;0.52;;
31584;SDS011;18191;51.288;12.390;2023-12-20T15:11:56;2.28;;;0.70;;
31584;SDS011;18191;51.288;12.390;2023-12-20T15:16:46;4.83;;;1.20;;
31584;SDS011;18191;51.288;12.390;2023-12-20T15:21:39;2.97;;;0.70;;
31584;SDS011;18191;51.288;12.390;2023-12-20T15:26:32;11.48;;;1.10;;
31584;SDS011;18191;51.288;12.390;2023-12-20T15:31:23;2.25;;;0.52;;
31584;SDS011;18191;51.288;12.390;2023-12-20T15:36:16;2.28;;;0.77;;
31584;SDS011;18191;51.288;12.390;2023-12-20T15:41:07;3.63;;;0.93;;
31584;SDS011;18191;51.288;12.390;2023-12-20T15:45:58;9.38;;;0.90;;
31584;SDS011;18191;51.288;12.390;2023-12-20T15:50:48;4.37;;;0.80;;
31584;SDS011;18191;51.288;12.390;2023-12-20T15:55:39;2.33;;;1.00;;
31584;SDS011;18191;51.288;12.390;2023-12-20T16:00:29;3.00;;;1.17;;
31584;SDS011;18191;51.288;12.390;2023-12-20T16:05:21;2.63;;;1.38;;
31584;SDS011;18191;51.288;12.390;2023-12-20T16:10:12;3.90;;;1.17;;
31584;SDS011;18191;51.288;12.390;2023-12-20T16:19:53;8.60;;;0.87;;
31584;SDS011;18191;51.288;12.390;2023-12-20T16:24:44;8.73;;;0.70;;
31584;SDS011;18191;51.288;12.390;2023-12-20T16:29:34;3.35;;;0.98;;
31584;SDS011;18191;51.288;12.390;2023-12-20T16:34:24;7.70;;;1.05;;
31584;SDS011;18191;51.288;12.390;2023-12-20T16:39:15;1.67;;;0.60;;
31584;SDS011;18191;51.288;12.390;2023-12-20T16:44:06;6.65;;;0.93;;
31584;SDS011;18191;51.288;12.390;2023-12-20T16:48:56;4.90;;;0.95;;
31584;SDS011;18191;51.288;12.390;2023-12-20T16:53:46;4.72;;;0.90;;
31584;SDS011;18191;51.288;12.390;2023-12-20T16:58:36;0.90;;;0.60;;
31584;SDS011;18191;51.288;12.390;2023-12-20T17:03:27;9.13;;;1.20;;
31584;SDS011;18191;51.288;12.390;2023-12-20T17:08:17;2.03;;;0.97;;
31584;SDS011;18191;51.288;12.390;2023-12-20T17:13:07;2.53;;;0.83;;
31584;SDS011;18191;51.288;12.390;2023-12-20T17:17:58;4.10;;;1.00;;
31584;SDS011;18191;51.288;12.390;2023-12-20T17:22:48;3.07;;;0.90;;
31584;SDS011;18191;51.288;12.390;2023-12-20T17:27:38;3.38;;;0.80;;
31584;SDS011;18191;51.288;12.390;2023-12-20T17:32:29;9.97;;;0.80;;
31584;SDS011;18191;51.288;12.390;2023-12-20T17:37:19;2.50;;;1.05;;
31584;SDS011;18191;51.288;12.390;2023-12-20T17:42:09;3.73;;;1.47;;
31584;SDS011;18191;51.288;12.390;2023-12-20T17:47:00;5.85;;;1.75;;
31584;SDS011;18191;51.288;12.390;2023-12-20T17:51:50;7.95;;;1.80;;
31584;SDS011;18191;51.288;12.390;2023-12-20T17:56:40;3.28;;;1.60;;
31584;SDS011;18191;51.288;12.390;2023-12-20T18:01:30;12.30;;;2.72;;
31584;SDS011;18191;51.288;12.390;2023-12-20T18:06:21;5.95;;;2.25;;
31584;SDS011;18191;51.288;12.390;2023-12-20T18:11:13;6.22;;;2.17;;
31584;SDS011;18191;51.288;12.390;2023-12-20T18:16:05;6.97;;;2.85;;
31584;SDS011;18191;51.288;12.390;2023-12-20T18:20:59;7.53;;;2.22;;
31584;SDS011;18191;51.288;12.390;2023-12-20T18:25:49;6.30;;;2.70;;
31584;SDS011;18191;51.288;12.390;2023-12-20T18:30:43;21.33;;;2.38;;
31584;SDS011;18191;51.288;12.390;2023-12-20T18:35:33;6.90;;;2.85;;
31584;SDS011;18191;51.288;12.390;2023-12-20T18:40:26;8.15;;;2.55;;
31584;SDS011;18191;51.288;12.390;2023-12-20T18:45:17;9.30;;;2.33;;
31584;SDS011;18191;51.288;12.390;2023-12-20T18:50:07;19.05;;;3.08;;
31584;SDS011;18191;51.288;12.390;2023-12-20T18:54:58;2.38;;;1.38;;
31584;SDS011;18191;51.288;12.390;2023-12-20T18:59:48;3.00;;;1.23;;
31584;SDS011;18191;51.288;12.390;2023-12-20T19:04:39;2.74;;;1.28;;
31584;SDS011;18191;51.288;12.390;2023-12-20T19:09:29;5.05;;;1.55;;
31584;SDS011;18191;51.288;12.390;2023-12-20T19:14:19;3.87;;;1.70;;
31584;SDS011;18191;51.288;12.390;2023-12-20T19:19:11;8.00;;;1.80;;
31584;SDS011;18191;51.288;12.390;2023-12-20T19:24:01;14.35;;;2.03;;
31584;SDS011;18191;51.288;12.390;2023-12-20T19:28:52;4.13;;;1.60;;
31584;SDS011;18191;51.288;12.390;2023-12-20T19:33:42;5.57;;;1.30;;
31584;SDS011;18191;51.288;12.390;2023-12-20T19:38:35;3.55;;;1.35;;
31584;SDS011;18191;51.288;12.390;2023-12-20T19:43:26;6.28;;;1.67;;
31584;SDS011;18191;51.288;12.390;2023-12-20T19:48:16;6.93;;;2.00;;
31584;SDS011;18191;51.288;12.390;2023-12-20T19:53:07;6.72;;;1.35;;
31584;SDS011;18191;51.288;12.390;2023-12-20T19:57:57;2.60;;;1.43;;
31584;SDS011;18191;51.288;12.390;2023-12-20T20:02:49;3.47;;;1.20;;
31584;SDS011;18191;51.288;12.390;2023-12-20T20:07:39;2.35;;;1.13;;
31584;SDS011;18191;51.288;12.390;2023-12-20T20:12:29;5.77;;;2.20;;
31584;SDS011;18191;51.288;12.390;2023-12-20T20:17:20;4.93;;;1.42;;
31584;SDS011;18191;51.288;12.390;2023-12-20T20:22:10;2.67;;;1.40;;
31584;SDS011;18191;51.288;12.390;2023-12-20T20:27:01;7.47;;;1.30;;
31584;SDS011;18191;51.288;12.390;2023-12-20T20:31:53;2.30;;;1.17;;
31584;SDS011;18191;51.288;12.390;2023-12-20T20:36:43;6.63;;;1.10;;
31584;SDS011;18191;51.288;12.390;2023-12-20T20:41:33;8.30;;;1.30;;
31584;SDS011;18191;51.288;12.390;2023-12-20T20:46:24;1.90;;;1.20;;
31584;SDS011;18191;51.288;12.390;2023-12-20T20:51:16;4.80;;;1.08;;
31584;SDS011;18191;51.288;12.390;2023-12-20T20:56:07;4.13;;;0.88;;
31584;SDS011;18191;51.288;12.390;2023-12-20T21:00:57;3.50;;;1.43;;
31584;SDS011;18191;51.288;12.390;2023-12-20T21:05:48;1.90;;;0.90;;
31584;SDS011;18191;51.288;12.390;2023-12-20T21:10:38;4.43;;;1.33;;
31584;SDS011;18191;51.288;12.390;2023-12-20T21:15:29;5.97;;;1.53;;
31584;SDS011;18191;51.288;12.390;2023-12-20T21:20:20;4.07;;;1.20;;
31584;SDS011;18191;51.288;12.390;2023-12-20T21:25:11;3.97;;;1.33;;
31584;SDS011;18191;51.288;12.390;2023-12-20T21:30:02;3.40;;;2.20;;
31584;SDS011;18191;51.288;12.390;2023-12-20T21:34:52;3.07;;;0.77;;
31584;SDS011;18191;51.288;12.390;2023-12-20T21:39:43;2.35;;;1.13;;
31584;SDS011;18191;51.288;12.390;2023-12-20T21:44:34;3.33;;;0.68;;
31584;SDS011;18191;51.288;12.390;2023-12-20T21:49:24;2.53;;;0.80;;
31584;SDS011;18191;51.288;12.390;2023-12-20T21:54:14;1.63;;;0.70;;
31584;SDS011;18191;51.288;12.390;2023-12-20T21:59:05;2.42;;;0.43;;
31584;SDS011;18191;51.288;12.390;2023-12-20T22:03:55;3.30;;;1.27;;
31584;SDS011;18191;51.288;12.390;2023-12-20T22:08:45;1.92;;;0.40;;
31584;SDS011;18191;51.288;12.390;2023-12-20T22:13:35;4.64;;;0.78;;
31584;SDS011;18191;51.288;12.390;2023-12-20T22:18:26;2.53;;;0.57;;
31584;SDS011;18191;51.288;12.390;2023-12-20T22:23:16;4.67;;;0.90;;
31584;SDS011;18191;51.288;12.390;2023-12-20T22:28:06;0.97;;;0.50;;
31584;SDS011;18191;51.288;12.390;2023-12-20T22:32:57;0.47;;;0.47;;
31584;SDS011;18191;51.288;12.390;2023-12-20T22:37:47;3.87;;;0.63;;
31584;SDS011;18191;51.288;12.390;2023-12-20T22:42:37;2.17;;;0.50;;
31584;SDS011;18191;51.288;12.390;2023-12-20T22:47:28;0.52;;;0.40;;
31584;SDS011;18191;51.288;12.390;2023-12-20T22:52:19;1.27;;;0.43;;
31584;SDS011;18191;51.288;12.390;2023-12-20T22:57:09;5.07;;;0.63;;
31584;SDS011;18191;51.288;12.390;2023-12-20T23:01:59;0.80;;;0.38;;
31584;SDS011;18191;51.288;12.390;2023-12-20T23:06:50;2.95;;;0.57;;
31584;SDS011;18191;51.288;12.390;2023-12-20T23:11:40;0.50;;;0.30;;
31584;SDS011;18191;51.288;12.390;2023-12-20T23:16:30;2.03;;;0.50;;
31584;SDS011;18191;51.288;12.390;2023-12-20T23:21:21;0.70;;;0.30;;
31584;SDS011;18191;51.288;12.390;2023-12-20T23:26:11;0.52;;;0.35;;
31584;SDS011;18191;51.288;12.390;2023-12-20T23:31:01;0.32;;;0.30;;
31584;SDS011;18191;51.288;12.390;2023-12-20T23:35:51;0.45;;;0.30;;
31584;SDS011;18191;51.288;12.390;2023-12-20T23:40:42;1.17;;;0.52;;
31584;SDS011;18191;51.288;12.390;2023-12-20T23:45:32;1.13;;;0.60;;
31584;SDS011;18191;51.288;12.390;2023-12-20T23:50:23;0.53;;;0.30;;
31584;SDS011;18191;51.288;12.390;2023-12-20T23:55:13;6.82;;;0.75;;
